Time;durP1;ratioP1;P1;durP2;ratioP2;P2;SDS_P1;SDS_P2;PMS_P1;PMS_P2;Temp;Humidity;BMP_temperature;BMP_pressure;BME280_temperature;BME280_humidity;BME280_pressure;Samples;Min_cycle;Max_cycle;Signal;HPM_P1;HPM_P2
2023/09/25 00:01:19;;;;;;;0.30;0.20;;;;;;;9.12;96.35;101043.63;4976708;28;20521;-51
2023/09/25 00:03:46;;;;;;;0.30;0.20;;;;;;;9.10;96.26;101044.53;4989398;28;20541;-51
2023/09/25 00:06:12;;;;;;;0.30;0.20;;;;;;;8.84;96.13;101052.75;4976873;28;20568;-51
2023/09/25 00:08:39;;;;;;;0.30;0.20;;;;;;;8.75;96.89;101040.44;4989732;28;20457;-51
2023/09/25 00:11:05;;;;;;;0.30;0.20;;;;;;;8.60;97.63;101037.94;4986810;28;20532;-52
2023/09/25 00:13:32;;;;;;;0.30;0.20;;;;;;;8.66;98.50;101037.03;4989533;28;20490;-51
2023/09/25 00:15:59;;;;;;;0.30;0.20;;;;;;;8.68;97.98;101030.81;4988984;28;20554;-52
2023/09/25 00:18:28;;;;;;;0.30;0.20;;;;;;;8.54;97.87;101030.06;4982663;28;20511;-51
2023/09/25 00:20:55;;;;;;;0.30;0.20;;;;;;;8.70;97.58;101036.09;4983069;28;20481;-51
2023/09/25 00:23:21;;;;;;;0.30;0.20;;;;;;;9.13;96.04;101033.91;4982748;28;20956;-51
2023/09/25 00:25:48;;;;;;;1.47;1.47;;;;;;;8.98;96.59;101042.00;4982583;28;20512;-51
2023/09/25 00:28:14;;;;;;;0.30;0.20;;;;;;;8.89;96.22;101035.91;4969874;28;20931;-51
2023/09/25 00:30:41;;;;;;;0.30;0.20;;;;;;;8.73;97.28;101038.72;4982630;28;20450;-52
2023/09/25 00:33:07;;;;;;;0.30;0.20;;;;;;;8.66;97.02;101037.91;4969983;28;20489;-51
2023/09/25 00:35:34;;;;;;;0.30;0.20;;;;;;;8.59;97.64;101042.34;4982115;28;20541;-51
2023/09/25 00:38:01;;;;;;;0.30;0.20;;;;;;;8.62;97.58;101036.16;4982049;28;20534;-51
2023/09/25 00:40:27;;;;;;;0.30;0.20;;;;;;;8.91;97.29;101041.22;4982079;28;20446;-52
2023/09/25 00:42:54;;;;;;;0.30;0.20;;;;;;;8.76;96.05;101043.97;4988501;28;20829;-52
2023/09/25 00:45:21;;;;;;;0.30;0.20;;;;;;;8.61;96.82;101039.69;4988750;28;20505;-52
2023/09/25 00:47:49;;;;;;;0.30;0.20;;;;;;;8.47;95.99;101038.94;4983108;28;20453;-51
2023/09/25 00:50:17;;;;;;;0.30;0.20;;;;;;;8.51;97.21;101040.69;4982231;28;20458;-51
2023/09/25 00:52:45;;;;;;;0.30;0.20;;;;;;;8.40;96.82;101040.75;4986911;28;20573;-51
2023/09/25 00:55:16;;;;;;;0.30;0.20;;;;;;;8.38;96.11;101036.38;4988371;28;21018;-51
2023/09/25 00:57:48;;;;;;;0.30;0.20;;;;;;;8.40;95.94;101037.22;4984711;28;20830;-51
2023/09/25 01:00:15;;;;;;;0.30;0.20;;;;;;;8.05;96.88;101048.00;4978340;28;20825;-50
2023/09/25 01:02:42;;;;;;;0.30;0.20;;;;;;;7.97;97.24;101040.13;4985659;28;20473;-52
2023/09/25 01:05:10;;;;;;;0.40;0.20;;;;;;;7.96;97.32;101030.44;4978960;28;20517;-51
2023/09/25 01:07:37;;;;;;;0.30;0.20;;;;;;;7.84;96.97;101034.03;4968494;28;20492;-52
2023/09/25 01:10:14;;;;;;;0.30;0.20;;;;;;;7.89;97.67;101034.00;4981566;28;20981;-53
2023/09/25 01:12:41;;;;;;;0.30;0.20;;;;;;;8.06;98.02;101039.19;4991599;28;20488;-52
2023/09/25 01:15:09;;;;;;;0.30;0.20;;;;;;;8.18;97.68;101039.09;4981806;28;20478;-51
2023/09/25 01:17:36;;;;;;;0.30;0.20;;;;;;;8.19;97.32;101035.56;4983142;28;20593;-52
2023/09/25 01:20:15;;;;;;;0.30;0.20;;;;;;;8.22;97.13;101031.16;4988196;28;20522;-53
2023/09/25 01:22:46;;;;;;;0.30;0.20;;;;;;;8.30;97.26;101031.09;4988295;28;20496;-52
2023/09/25 01:25:15;;;;;;;0.30;0.20;;;;;;;8.31;98.00;101022.25;4982978;28;20516;-52
2023/09/25 01:27:43;;;;;;;0.30;0.20;;;;;;;8.36;97.83;101024.88;4981586;28;20500;-52
2023/09/25 01:30:13;;;;;;;0.30;0.20;;;;;;;8.36;97.97;101017.84;4985609;28;20486;-53
2023/09/25 01:32:42;;;;;;;0.30;0.20;;;;;;;8.39;97.25;101015.16;4988178;28;20449;-53
2023/09/25 01:35:14;;;;;;;0.30;0.20;;;;;;;8.37;96.37;101016.94;4984316;28;20990;-52
2023/09/25 01:37:41;;;;;;;0.30;0.20;;;;;;;8.41;96.58;101009.84;4981183;28;20449;-53
2023/09/25 01:40:12;;;;;;;0.30;0.20;;;;;;;8.29;96.34;101013.44;4983853;28;20454;-52
2023/09/25 01:42:39;;;;;;;0.30;0.20;;;;;;;8.15;95.51;101000.28;4987583;28;20479;-53
2023/09/25 01:45:08;;;;;;;0.30;0.20;;;;;;;8.06;95.82;101008.28;4985956;28;20847;-52
2023/09/25 01:47:35;;;;;;;0.30;0.20;;;;;;;7.91;95.95;101018.97;4980971;28;20501;-53
2023/09/25 01:50:03;;;;;;;0.30;0.20;;;;;;;7.94;97.41;101013.66;4982167;28;20454;-52
2023/09/25 01:52:30;;;;;;;0.30;0.20;;;;;;;7.91;96.13;101019.84;4987665;28;20450;-52
2023/09/25 01:54:57;;;;;;;0.30;0.20;;;;;;;7.81;96.82;101011.97;4986482;28;20489;-53
2023/09/25 01:57:23;;;;;;;0.30;0.20;;;;;;;7.69;97.33;101018.25;4980939;28;20484;-52
2023/09/25 01:59:50;;;;;;;0.30;0.20;;;;;;;7.70;97.04;101015.59;4981711;28;20454;-52
2023/09/25 02:02:16;;;;;;;0.30;0.20;;;;;;;7.66;96.75;101008.53;4980443;28;20450;-53
2023/09/25 02:04:42;;;;;;;0.30;0.20;;;;;;;7.62;96.50;101009.44;4981226;28;20912;-52
2023/09/25 02:07:11;;;;;;;0.30;0.20;;;;;;;7.72;96.60;101011.16;4967632;28;20461;-52
2023/09/25 02:09:37;;;;;;;0.30;0.20;;;;;;;7.73;96.60;101018.19;4980612;28;20454;-53
2023/09/25 02:12:04;;;;;;;0.30;0.20;;;;;;;7.56;97.10;101012.13;4970786;28;20457;-52
2023/09/25 02:14:31;;;;;;;0.30;0.20;;;;;;;7.49;97.50;101013.03;4980530;28;20490;-52
2023/09/25 02:16:58;;;;;;;0.30;0.20;;;;;;;7.51;97.06;101013.00;4986800;28;20552;-52
2023/09/25 02:19:28;;;;;;;0.30;0.20;;;;;;;7.41;96.86;101004.25;4987186;28;20453;-53
2023/09/25 02:21:54;;;;;;;0.30;0.20;;;;;;;7.40;97.27;100998.09;4981731;28;20475;-53
2023/09/25 02:24:21;;;;;;;0.30;0.20;;;;;;;7.46;97.56;100998.94;4980104;28;20447;-52
2023/09/25 02:26:48;;;;;;;0.30;0.20;;;;;;;7.44;97.34;100998.94;4986074;28;20482;-52
2023/09/25 02:29:14;;;;;;;0.30;0.20;;;;;;;7.43;96.42;100992.78;4987102;28;20473;-52
2023/09/25 02:31:41;;;;;;;0.30;0.20;;;;;;;7.43;97.46;100999.84;4981593;28;20931;-53
2023/09/25 02:34:14;;;;;;;0.30;0.20;;;;;;;7.49;97.32;100994.50;4979978;28;20596;-53
2023/09/25 02:36:41;;;;;;;0.30;0.20;;;;;;;7.49;97.19;100986.56;4984654;28;20967;-52
2023/09/25 02:39:07;;;;;;;0.30;0.20;;;;;;;7.43;97.86;100991.91;4986498;28;20450;-53
2023/09/25 02:41:34;;;;;;;0.30;0.20;;;;;;;7.40;97.32;100986.59;4972781;28;20462;-52
2023/09/25 02:44:00;;;;;;;0.30;0.20;;;;;;;7.22;98.12;100992.84;4979893;28;20887;-52
2023/09/25 02:46:27;;;;;;;0.30;0.20;;;;;;;7.28;97.54;100994.63;4983804;28;20500;-52
2023/09/25 02:48:53;;;;;;;0.30;0.20;;;;;;;7.23;97.23;100991.09;4989566;28;21001;-52
2023/09/25 02:51:20;;;;;;;0.30;0.20;;;;;;;7.25;97.80;100991.97;4983531;28;20450;-52
2023/09/25 02:53:46;;;;;;;0.30;0.20;;;;;;;7.16;97.50;100989.38;4986744;28;20490;-52
2023/09/25 02:56:13;;;;;;;0.30;0.20;;;;;;;7.10;97.37;100988.47;4983415;28;20474;-53
2023/09/25 02:58:39;;;;;;;0.30;0.20;;;;;;;7.04;97.47;100980.59;4979920;28;20462;-52
2023/09/25 03:01:06;;;;;;;0.30;0.20;;;;;;;7.21;96.99;100983.16;4978600;28;20450;-53
2023/09/25 03:03:32;;;;;;;0.30;0.20;;;;;;;7.13;95.87;100979.69;4986560;28;20474;-52
2023/09/25 03:05:59;;;;;;;0.30;0.20;;;;;;;7.07;95.80;100977.94;4973224;28;20564;-52
2023/09/25 03:08:25;;;;;;;0.30;0.20;;;;;;;7.04;95.87;100988.53;4986320;28;20986;-53
2023/09/25 03:10:52;;;;;;;0.30;0.20;;;;;;;7.06;96.89;100977.94;4984275;28;20536;-52
2023/09/25 03:13:18;;;;;;;0.30;0.20;;;;;;;7.05;96.28;100992.03;4987887;28;20461;-52
2023/09/25 03:15:45;;;;;;;0.30;0.20;;;;;;;7.01;96.15;100995.59;4982253;28;20565;-52
2023/09/25 03:18:11;;;;;;;0.30;0.20;;;;;;;6.86;96.62;100999.16;4986375;28;20570;-53
2023/09/25 03:20:38;;;;;;;0.30;0.20;;;;;;;6.88;96.95;100991.22;4984120;28;20500;-53
2023/09/25 03:23:05;;;;;;;0.30;0.20;;;;;;;6.77;96.27;101002.66;4979576;28;20970;-53
2023/09/25 03:25:35;;;;;;;0.30;0.20;;;;;;;6.76;97.45;100993.00;4981925;28;20481;-52
2023/09/25 03:28:02;;;;;;;0.30;0.20;;;;;;;6.79;97.80;100992.09;4986290;28;20486;-52
2023/09/25 03:30:29;;;;;;;0.30;0.20;;;;;;;6.75;98.21;100988.59;4984823;28;20457;-53
2023/09/25 03:32:56;;;;;;;0.30;0.20;;;;;;;6.78;98.14;100990.34;4979341;28;20456;-52
2023/09/25 03:35:22;;;;;;;0.30;0.20;;;;;;;6.79;98.18;100986.81;4981420;28;20501;-52
2023/09/25 03:37:49;;;;;;;0.30;0.20;;;;;;;6.79;97.87;100982.41;4986338;28;20505;-52
2023/09/25 03:40:15;;;;;;;0.30;0.20;;;;;;;6.67;97.17;100982.44;4966739;28;20451;-52
2023/09/25 03:42:42;;;;;;;0.30;0.20;;;;;;;6.63;97.05;100983.31;4989995;28;20460;-53
2023/09/25 03:45:09;;;;;;;0.30;0.20;;;;;;;6.63;97.59;100979.81;4980760;28;20475;-52
2023/09/25 03:47:36;;;;;;;0.30;0.20;;;;;;;6.65;96.52;100978.91;4985865;28;20458;-52
2023/09/25 03:50:03;;;;;;;0.30;0.20;;;;;;;6.87;97.07;100984.16;4985249;28;20449;-52
2023/09/25 03:52:31;;;;;;;0.30;0.20;;;;;;;6.82;97.08;100994.72;4979610;28;20541;-52
2023/09/25 03:54:57;;;;;;;0.30;0.20;;;;;;;6.80;97.01;100994.72;4979985;28;20846;-53
2023/09/25 03:57:23;;;;;;;0.30;0.20;;;;;;;6.99;97.06;100992.03;4985952;28;20457;-52
2023/09/25 03:59:51;;;;;;;0.30;0.20;;;;;;;6.89;97.31;100983.28;4981593;28;20450;-52
2023/09/25 04:02:17;;;;;;;0.30;0.20;;;;;;;6.81;97.74;100991.22;4979097;28;20478;-53
2023/09/25 04:04:43;;;;;;;0.30;0.20;;;;;;;6.87;97.31;100992.09;4979215;28;20454;-52
2023/09/25 04:07:10;;;;;;;0.30;0.20;;;;;;;6.72;98.12;101003.56;4966780;28;20473;-52
2023/09/25 04:09:36;;;;;;;0.30;0.20;;;;;;;6.75;97.61;101007.09;4979386;28;20486;-52
2023/09/25 04:12:03;;;;;;;0.30;0.20;;;;;;;6.66;97.12;101007.09;4990237;28;20465;-52
2023/09/25 04:14:35;;;;;;;0.30;0.20;;;;;;;6.58;96.95;101000.94;4982649;28;20489;-52
2023/09/25 04:17:02;;;;;;;0.30;0.20;;;;;;;6.62;97.51;101007.97;4987766;28;20501;-53
2023/09/25 04:19:29;;;;;;;0.30;0.20;;;;;;;6.62;97.70;100991.25;4989414;28;20477;-52
2023/09/25 04:21:57;;;;;;;0.30;0.20;;;;;;;6.59;97.78;101000.06;4984504;28;20449;-52
2023/09/25 04:24:25;;;;;;;0.30;0.20;;;;;;;6.66;97.94;101001.81;4982352;28;20844;-52
2023/09/25 04:26:53;;;;;;;0.30;0.20;;;;;;;6.71;97.15;101005.31;4987038;28;20473;-53
2023/09/25 04:29:19;;;;;;;0.30;0.20;;;;;;;6.52;98.07;101006.22;4989193;28;20454;-52
2023/09/25 04:31:46;;;;;;;0.30;0.20;;;;;;;6.64;97.49;101007.97;4984755;28;20899;-52
2023/09/25 04:34:13;;;;;;;0.30;0.20;;;;;;;6.56;97.99;101012.38;4982371;28;20494;-52
2023/09/25 04:36:39;;;;;;;0.30;0.20;;;;;;;6.56;98.02;101010.59;4986781;28;20502;-52
2023/09/25 04:39:10;;;;;;;0.30;0.20;;;;;;;6.46;97.96;101006.22;4988898;28;20592;-52
2023/09/25 04:41:37;;;;;;;0.30;0.20;;;;;;;6.69;97.33;101007.06;4976371;28;20449;-52
2023/09/25 04:44:04;;;;;;;0.30;0.20;;;;;;;6.50;97.30;101008.88;4982012;28;20505;-52
2023/09/25 04:46:31;;;;;;;0.30;0.20;;;;;;;6.57;96.07;101015.00;4985210;28;20474;-53
2023/09/25 04:49:00;;;;;;;0.30;0.20;;;;;;;6.48;97.12;101017.66;4979686;28;20541;-52
2023/09/25 04:51:26;;;;;;;0.30;0.20;;;;;;;6.42;97.08;101015.00;4984478;28;20454;-52
2023/09/25 04:53:53;;;;;;;0.30;0.20;;;;;;;6.60;97.41;101016.78;4988736;28;20490;-52
2023/09/25 04:56:22;;;;;;;0.30;0.20;;;;;;;6.36;98.57;101007.09;4986351;28;20473;-52
2023/09/25 04:58:49;;;;;;;0.30;0.20;;;;;;;6.46;98.57;101019.44;4981744;28;20460;-52
2023/09/25 05:01:16;;;;;;;0.30;0.20;;;;;;;6.56;97.46;101013.25;4979811;28;20450;-52
2023/09/25 05:03:42;;;;;;;0.30;0.20;;;;;;;6.54;97.69;101015.91;4984023;28;20461;-52
2023/09/25 05:06:11;;;;;;;0.30;0.20;;;;;;;6.66;96.88;101020.28;4978807;28;20509;-53
2023/09/25 05:08:38;;;;;;;0.30;0.20;;;;;;;6.79;97.12;101027.31;4981896;28;20453;-53
2023/09/25 05:11:08;;;;;;;0.30;0.20;;;;;;;6.62;96.54;101026.47;4989450;28;20486;-53
2023/09/25 05:13:35;;;;;;;0.30;0.20;;;;;;;6.43;96.96;101027.34;4988677;28;20474;-53
2023/09/25 05:16:04;;;;;;;0.30;0.20;;;;;;;6.42;97.66;101020.28;4987811;28;20469;-52
2023/09/25 05:18:31;;;;;;;0.30;0.20;;;;;;;6.31;96.95;101022.06;4969007;28;20943;-52
2023/09/25 05:20:58;;;;;;;0.30;0.20;;;;;;;6.32;98.73;101026.47;4981510;28;20896;-53
2023/09/25 05:23:24;;;;;;;0.30;0.20;;;;;;;6.28;99.05;101024.69;4975026;28;20553;-53
2023/09/25 05:25:52;;;;;;;0.30;0.20;;;;;;;6.38;98.83;101026.47;4987984;28;20513;-52
2023/09/25 05:28:18;;;;;;;0.30;0.20;;;;;;;6.50;98.92;101030.00;4982454;28;20449;-52
2023/09/25 05:30:45;;;;;;;0.30;0.20;;;;;;;6.65;97.97;101021.19;4981753;28;20462;-53
2023/09/25 05:33:13;;;;;;;0.30;0.20;;;;;;;6.60;99.21;101027.34;4987600;28;20462;-53
2023/09/25 05:35:39;;;;;;;0.30;0.20;;;;;;;6.56;98.34;101023.81;4987841;28;20907;-52
2023/09/25 05:38:06;;;;;;;0.30;0.20;;;;;;;6.46;97.58;101030.88;4982390;28;20454;-53
2023/09/25 05:40:33;;;;;;;0.30;0.20;;;;;;;6.61;97.71;101037.91;4991369;28;20844;-52
2023/09/25 05:42:59;;;;;;;0.30;0.20;;;;;;;6.48;97.39;101038.78;4987091;28;20482;-53
2023/09/25 05:45:26;;;;;;;0.30;0.20;;;;;;;6.43;98.78;101037.91;4973770;28;20553;-53
2023/09/25 05:47:52;;;;;;;0.30;0.20;;;;;;;6.60;98.03;101038.81;4970793;28;20456;-52
2023/09/25 05:50:19;;;;;;;0.30;0.20;;;;;;;6.72;98.70;101040.56;4979783;28;20509;-52
2023/09/25 05:52:46;;;;;;;0.30;0.20;;;;;;;6.84;98.54;101038.75;4982513;28;20950;-52
2023/09/25 05:55:12;;;;;;;0.30;0.20;;;;;;;6.86;99.05;101038.78;4992423;28;20551;-53
2023/09/25 05:57:39;;;;;;;0.30;0.20;;;;;;;6.91;98.41;101041.41;4974798;28;20530;-52
2023/09/25 06:00:12;;;;;;;0.30;0.20;;;;;;;7.20;98.70;101041.34;4981687;28;20450;-53
2023/09/25 06:02:40;;;;;;;0.30;0.20;;;;;;;7.26;99.09;101034.25;4973554;28;20445;-52
2023/09/25 06:05:08;;;;;;;0.30;0.20;;;;;;;7.33;98.75;101038.66;4980255;28;20531;-52
2023/09/25 06:07:37;;;;;;;0.30;0.20;;;;;;;7.49;98.10;101036.81;4993643;28;20954;-54
2023/09/25 06:10:04;;;;;;;0.30;0.20;;;;;;;7.64;97.72;101030.59;4980833;28;20893;-52
2023/09/25 06:12:31;;;;;;;0.30;0.20;;;;;;;7.70;98.41;101039.41;4990946;28;20527;-52
2023/09/25 06:14:58;;;;;;;0.30;0.20;;;;;;;7.73;97.75;101034.09;4980410;28;20521;-52
2023/09/25 06:17:28;;;;;;;0.30;0.20;;;;;;;7.85;98.40;101040.19;4983641;28;20455;-52
2023/09/25 06:19:55;;;;;;;0.30;0.20;;;;;;;7.91;98.36;101045.44;4987196;28;20465;-52
2023/09/25 06:22:22;;;;;;;0.30;0.20;;;;;;;7.98;98.56;101050.72;4974472;28;20574;-52
2023/09/25 06:24:49;;;;;;;0.30;0.20;;;;;;;8.04;98.10;101060.38;4987308;28;20493;-52
2023/09/25 06:27:15;;;;;;;0.93;0.93;;;;;;;8.18;98.07;101061.16;4974121;28;20461;-53
2023/09/25 06:29:43;;;;;;;0.30;0.20;;;;;;;8.16;98.37;101056.78;4987045;28;20453;-53
2023/09/25 06:32:12;;;;;;;0.30;0.20;;;;;;;8.32;98.57;101061.97;4985231;28;20461;-53
2023/09/25 06:34:41;;;;;;;0.30;0.20;;;;;;;8.38;98.14;101060.22;4980213;28;20493;-52
2023/09/25 06:37:08;;;;;;;0.30;0.20;;;;;;;8.41;98.12;101057.53;4980505;28;20841;-52
2023/09/25 06:39:34;;;;;;;0.30;0.20;;;;;;;8.57;97.97;101060.03;4987079;28;20501;-53
2023/09/25 06:42:01;;;;;;;0.30;0.20;;;;;;;8.57;98.14;101060.03;4986226;28;20493;-53
2023/09/25 06:44:27;;;;;;;0.30;0.20;;;;;;;8.58;98.70;101056.50;4980191;28;20528;-52
2023/09/25 06:46:54;;;;;;;0.30;0.20;;;;;;;8.54;99.05;101045.94;4980459;28;20474;-53
2023/09/25 06:49:22;;;;;;;0.30;0.20;;;;;;;8.83;99.18;101051.00;4986492;28;20450;-52
2023/09/25 06:51:48;;;;;;;0.30;0.20;;;;;;;8.94;99.08;101049.13;4986522;28;20457;-52
2023/09/25 06:54:15;;;;;;;0.30;0.20;;;;;;;8.92;99.04;101050.03;4966916;28;20962;-52
2023/09/25 06:56:43;;;;;;;0.30;0.20;;;;;;;9.16;98.45;101057.72;4979974;28;20553;-52
2023/09/25 06:59:09;;;;;;;0.30;0.20;;;;;;;9.25;98.25;101057.63;4986239;28;20525;-52
2023/09/25 07:01:36;;;;;;;0.30;0.20;;;;;;;9.24;98.01;101058.53;4973136;28;20450;-53
2023/09/25 07:04:02;;;;;;;0.30;0.20;;;;;;;9.31;97.96;101054.03;4980766;28;20453;-54
2023/09/25 07:06:30;;;;;;;6.10;2.33;;;;;;;9.48;98.22;101052.09;4980652;28;20493;-52
2023/09/25 07:08:57;;;;;;;0.30;0.20;;;;;;;9.68;97.61;101054.47;4986010;28;20454;-52
2023/09/25 07:11:23;;;;;;;0.30;0.20;;;;;;;9.69;97.81;101058.88;4985205;28;20983;-52
2023/09/25 07:13:50;;;;;;;0.30;0.20;;;;;;;9.92;97.21;101059.47;4985887;28;20457;-52
2023/09/25 07:16:16;;;;;;;0.30;0.20;;;;;;;10.01;98.09;101053.19;4986634;28;20548;-53
2023/09/25 07:18:46;;;;;;;0.30;0.20;;;;;;;10.31;98.37;101047.44;4981926;28;20457;-52
2023/09/25 07:21:13;;;;;;;0.30;0.20;;;;;;;10.37;97.02;101046.44;4980233;28;20561;-52
2023/09/25 07:23:39;;;;;;;0.30;0.20;;;;;;;10.37;98.33;101055.31;4984688;28;20793;-51
2023/09/25 07:26:07;;;;;;;0.30;0.20;;;;;;;10.42;98.31;101054.38;4986828;28;20498;-51
2023/09/25 07:28:35;;;;;;;0.30;0.20;;;;;;;10.65;98.27;101047.75;4982422;28;20473;-50
2023/09/25 07:31:02;;;;;;;0.30;0.20;;;;;;;10.65;98.24;101054.88;4980205;28;20450;-51
2023/09/25 07:33:29;;;;;;;0.30;0.20;;;;;;;10.65;98.18;101045.09;4984202;28;20465;-51
2023/09/25 07:35:58;;;;;;;0.30;0.20;;;;;;;10.80;99.13;101040.44;4986942;28;20504;-51
2023/09/25 07:38:26;;;;;;;0.30;0.20;;;;;;;10.88;98.94;101038.53;4983259;28;20938;-51
2023/09/25 07:40:52;;;;;;;0.30;0.20;;;;;;;11.03;99.12;101037.38;4980153;28;20455;-51
2023/09/25 07:43:29;;;;;;;0.30;0.20;;;;;;;11.37;97.78;101038.47;4982693;28;20455;-51
2023/09/25 07:46:18;;;;;;;0.30;0.20;;;;;;;11.45;97.32;101035.66;4969613;28;20545;-52
2023/09/25 07:48:45;;;;;;;0.30;0.20;;;;;;;11.41;97.53;101037.50;4983953;28;20545;-51
2023/09/25 07:51:12;;;;;;;0.30;0.20;;;;;;;11.26;97.70;101033.38;4989056;28;20488;-51
2023/09/25 07:53:39;;;;;;;0.30;0.20;;;;;;;11.49;98.58;101030.22;4990345;28;20536;-51
2023/09/25 07:56:06;;;;;;;0.37;0.20;;;;;;;11.68;96.94;101035.19;4985281;28;20548;-52
2023/09/25 07:58:33;;;;;;;0.30;0.20;;;;;;;11.81;97.00;101032.28;4983795;28;20494;-52
2023/09/25 08:01:04;;;;;;;0.40;0.20;;;;;;;12.07;96.43;101039.69;4983715;28;20533;-52
2023/09/25 08:03:31;;;;;;;0.40;0.20;;;;;;;12.19;96.37;101035.84;4990588;28;20548;-52
2023/09/25 08:06:01;;;;;;;0.40;0.20;;;;;;;12.23;97.64;101037.53;4977348;28;20925;-52
2023/09/25 08:08:28;;;;;;;0.37;0.20;;;;;;;12.73;97.18;101046.09;4990360;28;20818;-52
2023/09/25 08:10:55;;;;;;;0.40;0.20;;;;;;;12.79;96.23;101039.75;4987592;28;20459;-52
2023/09/25 08:13:21;;;;;;;0.40;0.20;;;;;;;13.24;95.57;101043.88;4990518;28;20478;-51
2023/09/25 08:15:48;;;;;;;0.40;0.20;;;;;;;13.40;94.78;101041.66;4987859;28;20588;-52
2023/09/25 08:18:15;;;;;;;0.40;0.20;;;;;;;13.50;93.20;101037.81;4983552;28;20508;-52
2023/09/25 08:20:42;;;;;;;0.40;0.20;;;;;;;13.74;92.41;101035.34;4985644;28;20450;-52
2023/09/25 08:23:09;;;;;;;0.40;0.20;;;;;;;13.89;92.37;101032.22;4990316;28;20446;-52
2023/09/25 08:25:36;;;;;;;0.40;0.20;;;;;;;14.01;92.43;101037.19;4988350;28;20462;-52
2023/09/25 08:28:02;;;;;;;0.40;0.20;;;;;;;14.27;91.82;101038.19;4983527;28;20829;-52
2023/09/25 08:30:31;;;;;;;0.40;0.20;;;;;;;14.15;91.80;101042.13;4985307;28;20458;-52
2023/09/25 08:32:58;;;;;;;0.40;0.20;;;;;;;14.35;91.15;101042.34;4989852;28;20501;-52
2023/09/25 08:35:24;;;;;;;0.40;0.20;;;;;;;14.17;90.70;101040.28;4988838;28;20571;-53
2023/09/25 08:37:51;;;;;;;0.40;0.20;;;;;;;14.36;90.02;101046.78;4983488;28;20456;-52
2023/09/25 08:40:19;;;;;;;0.40;0.20;;;;;;;14.15;91.92;101043.00;4984524;28;20501;-52
2023/09/25 08:42:46;;;;;;;0.43;0.30;;;;;;;14.32;91.18;101052.28;4989670;28;20454;-52
2023/09/25 08:45:15;;;;;;;0.40;0.20;;;;;;;14.56;90.73;101043.50;4989367;28;20492;-52
2023/09/25 08:47:42;;;;;;;0.40;0.20;;;;;;;14.91;90.14;101036.94;4970333;28;20461;-52
2023/09/25 08:50:09;;;;;;;0.40;0.20;;;;;;;15.04;89.18;101035.59;4982860;28;20454;-51
2023/09/25 08:52:36;;;;;;;0.40;0.20;;;;;;;15.25;88.78;101044.69;4989198;28;20501;-52
2023/09/25 08:55:03;;;;;;;0.40;0.20;;;;;;;15.21;89.36;101044.84;4989400;28;20601;-52
2023/09/25 08:57:30;;;;;;;0.40;0.20;;;;;;;15.60;88.05;101043.41;4983902;28;20445;-52
2023/09/25 09:00:00;;;;;;;0.40;0.20;;;;;;;15.64;87.02;101058.47;4980955;28;20447;-52
2023/09/25 09:02:27;;;;;;;0.40;0.20;;;;;;;15.40;86.55;101048.63;4984659;28;20450;-52
2023/09/25 09:04:53;;;;;;;0.40;0.20;;;;;;;15.60;86.15;101051.47;4981201;28;20509;-52
2023/09/25 09:07:19;;;;;;;0.40;0.20;;;;;;;15.51;87.33;101049.09;4984696;28;20477;-51
2023/09/25 09:09:46;;;;;;;0.40;0.20;;;;;;;15.84;86.05;101043.44;4982967;28;20936;-51
2023/09/25 09:12:13;;;;;;;0.40;0.20;;;;;;;15.81;85.93;101048.94;4994089;28;20461;-51
2023/09/25 09:14:42;;;;;;;0.40;0.20;;;;;;;16.25;85.42;101039.13;4982719;28;20545;-51
2023/09/25 09:17:10;;;;;;;0.40;0.20;;;;;;;16.43;84.77;101034.84;4987014;28;20461;-51
2023/09/25 09:19:49;;;;;;;0.40;0.20;;;;;;;16.41;84.99;101034.03;4989245;28;20454;-51
2023/09/25 09:22:17;;;;;;;0.40;0.20;;;;;;;16.51;83.93;101030.91;4987252;28;20521;-51
2023/09/25 09:24:44;;;;;;;0.40;0.20;;;;;;;16.88;83.65;101029.41;4982135;28;20540;-51
2023/09/25 09:27:11;;;;;;;0.40;0.20;;;;;;;16.73;84.24;101030.94;4984348;28;20458;-51
2023/09/25 09:29:40;;;;;;;0.40;0.20;;;;;;;16.81;82.77;101031.47;4988544;28;20482;-51
2023/09/25 09:32:06;;;;;;;0.40;0.20;;;;;;;16.97;82.92;101031.69;4987694;28;21026;-51
2023/09/25 09:34:33;;;;;;;0.40;0.20;;;;;;;17.08;82.27;101029.41;4982013;28;20485;-51
2023/09/25 09:37:00;;;;;;;0.40;0.20;;;;;;;17.32;82.62;101027.47;4983588;28;21066;-51
2023/09/25 09:39:34;;;;;;;0.40;0.20;;;;;;;17.39;81.86;101025.34;4988896;28;20462;-51
2023/09/25 09:42:05;;;;;;;0.40;0.20;;;;;;;17.02;82.35;101023.44;4988401;28;20446;-51
2023/09/25 09:44:33;;;;;;;0.40;0.20;;;;;;;17.36;81.72;101010.25;4987985;28;20906;-51
2023/09/25 09:47:04;;;;;;;0.40;0.20;;;;;;;17.27;81.78;101013.38;4988619;28;20466;-51
2023/09/25 09:49:35;;;;;;;0.40;0.20;;;;;;;17.58;80.67;101009.28;4983565;28;20886;-51
2023/09/25 09:52:03;;;;;;;0.40;0.20;;;;;;;17.78;80.23;101003.88;4981977;28;20478;-51
2023/09/25 09:54:38;;;;;;;0.40;0.27;;;;;;;17.94;78.02;101002.19;4986239;28;20458;-53
2023/09/25 09:57:07;;;;;;;0.40;0.20;;;;;;;17.98;77.27;100997.56;4988020;28;20865;-51
2023/09/25 09:59:33;;;;;;;0.40;0.20;;;;;;;18.06;77.25;100996.22;4984062;28;20896;-52
2023/09/25 10:02:02;;;;;;;0.40;0.20;;;;;;;18.37;77.10;100997.44;4979272;28;20512;-51
2023/09/25 10:04:30;;;;;;;0.40;0.20;;;;;;;18.44;75.15;100989.91;4984163;28;22713;-52
2023/09/25 10:07:04;;;;;;;0.40;0.20;;;;;;;18.22;70.77;100988.28;4979664;28;20473;-51
2023/09/25 10:09:32;;;;;;;0.40;0.20;;;;;;;18.39;71.60;100984.78;4981769;28;20506;-51
2023/09/25 10:12:01;;;;;;;0.40;0.20;;;;;;;18.28;72.33;100988.00;4991637;28;20822;-51
2023/09/25 10:14:30;;;;;;;0.40;0.20;;;;;;;18.52;70.55;100985.91;4981344;28;20870;-51
2023/09/25 10:17:05;;;;;;;0.40;0.20;;;;;;;18.67;69.48;100989.69;4986959;28;20503;-51
2023/09/25 10:19:40;;;;;;;0.40;0.20;;;;;;;18.75;67.77;100978.50;4987677;28;20423;-51
2023/09/25 10:22:26;;;;;;;0.40;0.20;;;;;;;19.09;67.28;100983.88;4984532;28;20457;-51
2023/09/25 10:25:19;;;;;;;0.40;0.20;;;;;;;19.35;66.63;100982.50;4981255;28;20419;-51
2023/09/25 10:27:46;;;;;;;0.40;0.20;;;;;;;19.26;65.93;100979.41;4977187;28;20432;-52
2023/09/25 10:30:15;;;;;;;0.40;0.20;;;;;;;19.42;65.99;100980.31;4984303;28;20806;-51
2023/09/25 10:32:50;;;;;;;0.40;0.20;;;;;;;19.49;66.37;100976.34;4987579;28;20874;-52
2023/09/25 10:35:48;;;;;;;0.40;0.20;;;;;;;19.12;64.69;100983.72;4986050;28;20514;-51
2023/09/25 10:38:17;;;;;;;0.40;0.20;;;;;;;19.25;65.73;100978.53;4974020;28;20420;-51
2023/09/25 10:41:07;;;;;;;0.40;0.20;;;;;;;19.33;64.29;100978.16;4981169;28;20432;-52
2023/09/25 10:43:35;;;;;;;0.40;0.20;;;;;;;19.36;64.51;100978.84;4980951;28;20427;-52
2023/09/25 10:46:02;;;;;;;0.40;0.20;;;;;;;19.57;64.59;100975.97;4968124;28;20475;-52
2023/09/25 10:48:31;;;;;;;0.40;0.20;;;;;;;19.95;63.89;100966.59;4980465;28;20933;-52
2023/09/25 10:50:58;;;;;;;0.40;0.20;;;;;;;19.79;63.81;100966.59;4986440;28;20483;-52
2023/09/25 10:53:26;;;;;;;0.40;0.20;;;;;;;19.94;64.69;100964.00;4987008;28;20828;-52
2023/09/25 10:55:53;;;;;;;0.40;0.20;;;;;;;19.93;64.53;100964.97;4981768;28;20615;-52
2023/09/25 10:58:20;;;;;;;0.40;0.20;;;;;;;19.69;64.55;100951.00;4980363;28;20460;-52
2023/09/25 11:00:49;;;;;;;0.40;0.20;;;;;;;19.91;63.22;100958.78;4982058;28;20509;-52
2023/09/25 11:03:17;;;;;;;0.40;0.30;;;;;;;19.67;64.27;100945.69;4987000;28;20462;-53
2023/09/25 11:05:44;;;;;;;0.40;0.20;;;;;;;19.66;64.73;100938.56;4974969;28;20476;-52
2023/09/25 11:08:15;;;;;;;0.40;0.20;;;;;;;20.07;63.66;100943.44;4987174;28;20456;-52
2023/09/25 11:10:43;;;;;;;0.40;0.20;;;;;;;20.10;62.84;100937.88;4982534;28;20445;-52
2023/09/25 11:13:09;;;;;;;0.40;0.20;;;;;;;19.82;62.07;100942.13;4975856;28;20470;-52
2023/09/25 11:15:37;;;;;;;0.40;0.20;;;;;;;20.08;63.12;100937.09;4978673;28;20521;-52
2023/09/25 11:18:09;;;;;;;0.40;0.20;;;;;;;20.15;62.20;100935.78;4980090;28;20959;-52
2023/09/25 11:20:38;;;;;;;0.40;0.20;;;;;;;20.29;60.18;100935.84;4983539;28;20805;-52
2023/09/25 11:23:10;;;;;;;0.40;0.23;;;;;;;20.01;61.55;100922.19;4990402;28;20527;-52
2023/09/25 11:25:43;;;;;;;0.40;0.20;;;;;;;20.27;60.56;100924.25;4989344;28;20982;-52
2023/09/25 11:28:25;;;;;;;0.40;0.20;;;;;;;20.13;59.21;100922.34;4984215;28;20449;-52
2023/09/25 11:30:51;;;;;;;0.40;0.20;;;;;;;20.61;59.46;100922.28;4984095;28;20453;-52
2023/09/25 11:33:22;;;;;;;0.40;0.20;;;;;;;20.87;57.16;100924.28;4989741;28;20446;-51